createdAt,value
2023-01-29T00:00:17.729Z,-1.63
2023-01-29T00:03:07.614Z,-1.61
2023-01-29T00:05:36.747Z,-1.56
2023-01-29T00:08:07.052Z,-1.52
2023-01-29T00:10:36.295Z,-1.53
2023-01-29T00:13:05.390Z,-1.53
2023-01-29T00:15:34.692Z,-1.55
2023-01-29T00:18:03.993Z,-1.54
2023-01-29T00:20:33.761Z,-1.53
2023-01-29T00:23:03.306Z,-1.52
2023-01-29T00:25:32.934Z,-1.53
2023-01-29T00:28:02.845Z,-1.55
2023-01-29T00:30:32.547Z,-1.58
2023-01-29T00:33:01.762Z,-1.57
2023-01-29T00:35:32.231Z,-1.62
2023-01-29T00:38:01.548Z,-1.68
2023-01-29T00:40:50.840Z,-1.70
2023-01-29T00:43:38.893Z,-1.73
2023-01-29T00:46:08.657Z,-1.72
2023-01-29T00:48:38.009Z,-1.70
2023-01-29T00:51:07.410Z,-1.70
2023-01-29T00:53:36.458Z,-1.70
2023-01-29T00:56:06.596Z,-1.72
2023-01-29T00:58:35.997Z,-1.72
2023-01-29T01:01:05.676Z,-1.69
2023-01-29T01:03:41.572Z,-1.72
2023-01-29T01:06:11.836Z,-1.70
2023-01-29T01:08:59.099Z,-1.64
2023-01-29T01:11:28.944Z,-1.57
2023-01-29T01:14:01.626Z,-1.53
2023-01-29T01:16:30.978Z,-1.49
2023-01-29T01:19:00.401Z,-1.46
2023-01-29T01:21:29.504Z,-1.45
2023-01-29T01:23:59.127Z,-1.45
2023-01-29T01:26:29.739Z,-1.47
2023-01-29T01:28:58.732Z,-1.45
2023-01-29T01:31:27.987Z,-1.49
2023-01-29T01:33:57.334Z,-1.51
2023-01-29T01:36:27.799Z,-1.45
2023-01-29T01:38:57.077Z,-1.44
2023-01-29T01:41:27.396Z,-1.45
2023-01-29T01:43:57.331Z,-1.43
2023-01-29T01:46:30.864Z,-1.44
2023-01-29T01:49:02.884Z,-1.39
2023-01-29T01:51:36.315Z,-1.35
2023-01-29T01:54:10.126Z,-1.38
2023-01-29T01:56:42.909Z,-1.38
2023-01-29T01:59:16.011Z,-1.38
2023-01-29T02:01:50.727Z,-1.40
2023-01-29T02:04:42.439Z,-1.41
2023-01-29T02:07:33.476Z,-1.41
2023-01-29T02:10:11.026Z,-1.44
2023-01-29T02:12:40.702Z,-1.48
2023-01-29T02:15:11.924Z,-1.48
2023-01-29T02:17:41.326Z,-1.50
2023-01-29T02:20:18.101Z,-1.47
2023-01-29T02:23:12.743Z,-1.46
2023-01-29T02:26:16.800Z,-1.42
2023-01-29T02:28:52.901Z,-1.42
2023-01-29T02:31:29.386Z,-1.44
2023-01-29T02:34:06.365Z,-1.44
2023-01-29T02:36:41.535Z,-1.44
2023-01-29T02:39:19.916Z,-1.48
2023-01-29T02:41:58.703Z,-1.51
2023-01-29T02:44:36.548Z,-1.50
2023-01-29T02:47:12.495Z,-1.50
2023-01-29T02:49:49.701Z,-1.52
2023-01-29T02:52:23.866Z,-1.53
2023-01-29T02:55:02.359Z,-1.53
2023-01-29T02:57:36.479Z,-1.55
2023-01-29T03:00:10.594Z,-1.55
2023-01-29T03:02:45.884Z,-1.56
2023-01-29T03:05:21.806Z,-1.57
2023-01-29T03:07:57.182Z,-1.57
2023-01-29T03:10:38.541Z,-1.57
2023-01-29T03:13:12.748Z,-1.54
2023-01-29T03:15:46.384Z,-1.53
2023-01-29T03:18:45.596Z,-1.54
2023-01-29T03:21:41.823Z,-1.52
2023-01-29T03:24:32.528Z,-1.51
2023-01-29T03:27:27.573Z,-1.49
2023-01-29T03:30:17.823Z,-1.41
2023-01-29T03:32:57.832Z,-1.37
2023-01-29T03:35:34.814Z,-1.33
2023-01-29T03:38:05.790Z,-1.31
2023-01-29T03:40:42.585Z,-1.26
2023-01-29T03:43:19.252Z,-1.28
2023-01-29T03:45:57.095Z,-1.34
2023-01-29T03:48:35.062Z,-1.37
2023-01-29T03:51:20.025Z,-1.44
2023-01-29T03:53:54.233Z,-1.49
2023-01-29T03:56:36.690Z,-1.54
2023-01-29T03:59:20.837Z,-1.59
2023-01-29T04:02:13.500Z,-1.61
2023-01-29T04:04:47.186Z,-1.60
2023-01-29T04:07:24.049Z,-1.57
2023-01-29T04:10:06.188Z,-1.59
2023-01-29T04:12:41.830Z,-1.60
2023-01-29T04:15:16.070Z,-1.59
2023-01-29T04:17:49.475Z,-1.54
2023-01-29T04:20:25.390Z,-1.53
2023-01-29T04:22:54.793Z,-1.53
2023-01-29T04:25:28.503Z,-1.55
2023-01-29T04:28:08.048Z,-1.59
2023-01-29T04:30:44.933Z,-1.60
2023-01-29T04:33:24.488Z,-1.59
2023-01-29T04:36:13.350Z,-1.63
2023-01-29T04:38:48.993Z,-1.67
2023-01-29T04:41:22.804Z,-1.72
2023-01-29T04:44:03.041Z,-1.76
2023-01-29T04:46:44.601Z,-1.73
2023-01-29T04:49:21.561Z,-1.70
2023-01-29T04:52:01.296Z,-1.67
2023-01-29T04:54:41.788Z,-1.68
2023-01-29T04:57:22.588Z,-1.75
2023-01-29T05:00:00.458Z,-1.77
2023-01-29T05:02:31.907Z,-1.76
2023-01-29T05:05:03.295Z,-1.76
2023-01-29T05:07:33.909Z,-1.77
2023-01-29T05:10:04.136Z,-1.80
2023-01-29T05:12:33.169Z,-1.84
2023-01-29T05:15:03.245Z,-1.87
2023-01-29T05:17:32.559Z,-1.88
2023-01-29T05:20:01.888Z,-1.88
2023-01-29T05:22:32.000Z,-1.91
2023-01-29T05:25:01.047Z,-1.95
2023-01-29T05:27:53.406Z,-1.96
2023-01-29T05:30:23.089Z,-2.00
2023-01-29T05:32:51.834Z,-2.04
2023-01-29T05:35:21.057Z,-2.04
2023-01-29T05:37:50.760Z,-2.03
2023-01-29T05:40:19.639Z,-2.03
2023-01-29T05:42:49.095Z,-2.03
2023-01-29T05:45:19.208Z,-2.01
2023-01-29T05:47:48.108Z,-2.04
2023-01-29T05:50:18.732Z,-2.10
2023-01-29T05:52:48.086Z,-2.09
2023-01-29T05:55:17.912Z,-2.12
2023-01-29T05:57:47.061Z,-2.19
2023-01-29T06:00:18.593Z,-2.23
2023-01-29T06:02:48.138Z,-2.24
2023-01-29T06:05:17.485Z,-2.25
2023-01-29T06:07:46.808Z,-2.24
2023-01-29T06:10:17.894Z,-2.27
2023-01-29T06:12:47.148Z,-2.25
2023-01-29T06:15:16.657Z,-2.18
2023-01-29T06:17:45.353Z,-2.15
2023-01-29T06:20:15.471Z,-2.13
2023-01-29T06:22:44.888Z,-2.16
2023-01-29T06:25:14.092Z,-2.16
2023-01-29T06:27:43.294Z,-2.17
2023-01-29T06:30:14.649Z,-2.22
2023-01-29T06:32:44.331Z,-2.27
2023-01-29T06:35:13.863Z,-2.26
2023-01-29T06:37:43.249Z,-2.25
2023-01-29T06:40:13.829Z,-2.22
2023-01-29T06:42:45.914Z,-2.20
2023-01-29T06:45:15.922Z,-2.17
2023-01-29T06:47:44.910Z,-2.15
2023-01-29T06:50:13.895Z,-2.14
2023-01-29T06:52:42.900Z,-2.16
2023-01-29T06:55:11.935Z,-2.17
2023-01-29T06:57:41.242Z,-2.18
2023-01-29T07:00:13.055Z,-2.21
2023-01-29T07:02:41.849Z,-2.20
2023-01-29T07:05:11.061Z,-2.21
2023-01-29T07:07:40.057Z,-2.18
2023-01-29T07:10:11.078Z,-2.16
2023-01-29T07:12:40.080Z,-2.10
2023-01-29T07:15:12.139Z,-2.06
2023-01-29T07:17:41.071Z,-2.01
2023-01-29T07:20:12.437Z,-2.01
2023-01-29T07:22:41.221Z,-2.01
2023-01-29T07:25:11.444Z,-2.00
2023-01-29T07:27:40.674Z,-2.01
2023-01-29T07:30:12.904Z,-1.99
2023-01-29T07:32:42.511Z,-1.98
2023-01-29T07:35:11.712Z,-2.00
2023-01-29T07:37:40.574Z,-1.99
2023-01-29T07:40:12.517Z,-1.97
2023-01-29T07:42:43.459Z,-1.94
2023-01-29T07:45:13.894Z,-1.93
2023-01-29T07:47:43.107Z,-1.82
2023-01-29T07:50:12.890Z,-1.81
2023-01-29T07:52:42.495Z,-1.80
2023-01-29T07:55:11.952Z,-1.76
2023-01-29T07:57:41.126Z,-1.73
2023-01-29T08:00:12.886Z,-1.73
2023-01-29T08:02:42.596Z,-1.66
2023-01-29T08:05:11.750Z,-1.66
2023-01-29T08:07:40.986Z,-1.67
2023-01-29T08:10:11.793Z,-1.61
2023-01-29T08:12:41.231Z,-1.50
2023-01-29T08:15:12.075Z,-1.38
2023-01-29T08:17:56.039Z,-1.28
2023-01-29T08:20:27.228Z,-1.27
2023-01-29T08:23:01.716Z,-1.23
2023-01-29T08:25:31.278Z,-1.21
2023-01-29T08:28:01.275Z,-1.18
2023-01-29T08:30:32.619Z,-1.19
2023-01-29T08:33:03.607Z,-1.15
2023-01-29T08:35:32.734Z,-1.16
2023-01-29T08:38:03.257Z,-1.14
2023-01-29T08:40:34.843Z,-1.15
2023-01-29T08:43:07.749Z,-1.15
2023-01-29T08:45:40.868Z,-1.12
2023-01-29T08:48:12.048Z,-1.14
2023-01-29T08:50:41.288Z,-1.12
2023-01-29T08:53:10.916Z,-1.15
2023-01-29T08:55:41.739Z,-1.26
2023-01-29T08:58:12.809Z,-1.20
2023-01-29T09:00:42.125Z,-1.23
2023-01-29T09:03:11.435Z,-1.24
2023-01-29T09:05:41.408Z,-1.22
2023-01-29T09:08:12.328Z,-1.16
2023-01-29T09:10:41.379Z,-1.07
2023-01-29T09:13:10.230Z,-1.00
2023-01-29T09:15:39.645Z,-0.94
2023-01-29T09:18:08.514Z,-0.92
2023-01-29T09:20:40.021Z,-0.94
2023-01-29T09:23:10.773Z,-0.95
2023-01-29T09:25:39.634Z,-0.95
2023-01-29T09:28:08.916Z,-0.97
2023-01-29T09:30:37.904Z,-0.89
2023-01-29T09:33:08.393Z,-0.83
2023-01-29T09:35:37.517Z,-0.79
2023-01-29T09:38:06.365Z,-0.78
2023-01-29T09:40:47.467Z,-0.82
2023-01-29T09:43:22.797Z,-0.85
2023-01-29T09:45:58.266Z,-0.89
2023-01-29T09:48:32.435Z,-0.90
2023-01-29T09:51:07.104Z,-0.95
2023-01-29T09:53:41.438Z,-0.99
2023-01-29T09:56:17.066Z,-1.00
2023-01-29T09:58:46.822Z,-0.86
2023-01-29T10:01:22.515Z,-0.64
2023-01-29T10:04:19.909Z,-0.35
2023-01-29T10:07:07.031Z,-0.16
2023-01-29T10:09:52.136Z,-0.07
2023-01-29T10:12:40.693Z,-0.15
2023-01-29T10:15:27.332Z,-0.22
2023-01-29T10:18:10.602Z,-0.26
2023-01-29T10:20:53.249Z,-0.12
2023-01-29T10:23:30.237Z,-0.17
2023-01-29T10:25:59.560Z,-0.19
2023-01-29T10:28:34.033Z,-0.24
2023-01-29T10:31:08.942Z,-0.41
2023-01-29T10:33:49.408Z,-0.35
2023-01-29T10:36:35.109Z,-0.42
2023-01-29T10:39:05.619Z,-0.32
2023-01-29T10:41:48.696Z,-0.20
2023-01-29T10:44:33.446Z,-0.09
2023-01-29T10:47:30.692Z,-0.07
2023-01-29T10:50:13.468Z,-0.03
2023-01-29T10:53:03.819Z,0.07
2023-01-29T10:55:43.261Z,0.15
2023-01-29T10:58:23.148Z,0.12
2023-01-29T11:00:52.621Z,0.13
2023-01-29T11:03:28.325Z,0.17
2023-01-29T11:06:04.304Z,0.27
2023-01-29T11:08:38.292Z,0.33
2023-01-29T11:11:12.429Z,0.25
2023-01-29T11:13:48.613Z,0.31
2023-01-29T11:16:18.193Z,0.40
2023-01-29T11:18:54.263Z,0.55
2023-01-29T11:21:24.720Z,0.72
2023-01-29T11:24:08.036Z,0.85
2023-01-29T11:26:40.969Z,0.86
2023-01-29T11:29:32.138Z,0.88
2023-01-29T11:32:04.224Z,0.86
2023-01-29T11:34:33.418Z,0.85
2023-01-29T11:37:04.550Z,0.84
2023-01-29T11:39:33.681Z,0.74
2023-01-29T11:42:04.365Z,0.74
2023-01-29T11:44:36.582Z,0.77
2023-01-29T11:47:20.944Z,0.84
2023-01-29T11:49:52.612Z,0.76
2023-01-29T11:52:24.625Z,0.72
2023-01-29T11:54:57.877Z,0.72
2023-01-29T11:57:33.550Z,0.75
2023-01-29T12:00:06.384Z,0.73
2023-01-29T12:02:42.211Z,0.68
2023-01-29T12:05:17.838Z,0.62
2023-01-29T12:07:49.811Z,0.63
2023-01-29T12:10:33.946Z,0.69
2023-01-29T12:13:26.103Z,0.71
2023-01-29T12:16:17.898Z,0.66
2023-01-29T12:18:52.940Z,0.60
2023-01-29T12:21:30.109Z,0.55
2023-01-29T12:24:06.910Z,0.52
2023-01-29T12:26:41.307Z,0.46
2023-01-29T12:29:23.386Z,0.43
2023-01-29T12:32:03.763Z,0.47
2023-01-29T12:34:44.613Z,0.46
2023-01-29T12:37:22.610Z,0.40
2023-01-29T12:39:53.636Z,0.39
2023-01-29T12:42:24.968Z,0.40
2023-01-29T12:44:57.913Z,0.49
2023-01-29T12:47:32.900Z,0.59
2023-01-29T12:50:07.263Z,0.66
2023-01-29T12:52:43.199Z,0.70
2023-01-29T12:55:19.572Z,0.83
2023-01-29T12:57:55.553Z,1.02
2023-01-29T13:00:27.191Z,1.08
2023-01-29T13:03:02.447Z,1.22
2023-01-29T13:05:38.576Z,1.34
2023-01-29T13:08:14.568Z,1.52
2023-01-29T13:10:49.081Z,1.52
2023-01-29T13:13:26.567Z,1.41
2023-01-29T13:15:59.345Z,1.21
2023-01-29T13:18:43.274Z,1.12
2023-01-29T13:21:17.235Z,1.10
2023-01-29T13:23:49.104Z,1.05
2023-01-29T13:26:20.260Z,1.04
2023-01-29T13:28:51.684Z,0.97
2023-01-29T13:31:31.006Z,0.92
2023-01-29T13:34:15.345Z,0.82
2023-01-29T13:36:47.004Z,0.78
2023-01-29T13:39:24.190Z,0.77
2023-01-29T13:41:56.051Z,0.80
2023-01-29T13:44:28.233Z,0.81
2023-01-29T13:47:00.642Z,0.77
2023-01-29T13:49:38.426Z,0.75
2023-01-29T13:52:26.653Z,0.70
2023-01-29T13:54:57.979Z,0.67
2023-01-29T13:57:48.632Z,0.63
2023-01-29T14:00:57.726Z,0.57
2023-01-29T14:03:56.693Z,0.54
2023-01-29T14:06:46.619Z,0.49
2023-01-29T14:09:50.851Z,0.49
2023-01-29T14:12:53.653Z,0.52
2023-01-29T14:15:25.742Z,0.45
2023-01-29T14:18:13.934Z,0.43
2023-01-29T14:20:53.477Z,0.54
2023-01-29T14:23:30.242Z,0.66
2023-01-29T14:26:04.270Z,0.76
2023-01-29T14:28:35.508Z,0.88
2023-01-29T14:31:07.151Z,1.00
2023-01-29T14:33:41.009Z,1.07
2023-01-29T14:36:14.805Z,1.04
2023-01-29T14:38:50.342Z,0.92
2023-01-29T14:41:28.405Z,0.76
2023-01-29T14:44:29.277Z,0.64
2023-01-29T14:46:58.558Z,0.44
2023-01-29T14:49:49.677Z,0.34
2023-01-29T14:52:21.591Z,0.27
2023-01-29T14:54:52.792Z,0.23
2023-01-29T14:57:23.618Z,0.21
2023-01-29T14:59:58.054Z,0.18
2023-01-29T15:02:34.714Z,0.13
2023-01-29T15:05:07.275Z,0.09
2023-01-29T15:07:39.909Z,0.02
2023-01-29T15:10:23.750Z,-0.06
2023-01-29T15:12:58.378Z,-0.16
2023-01-29T15:15:37.366Z,-0.19
2023-01-29T15:18:13.019Z,-0.17
2023-01-29T15:20:43.623Z,-0.18
2023-01-29T15:23:27.167Z,-0.23
2023-01-29T15:26:01.232Z,-0.26
2023-01-29T15:28:32.846Z,-0.30
2023-01-29T15:31:04.525Z,-0.32
2023-01-29T15:33:38.027Z,-0.34
2023-01-29T15:36:18.264Z,-0.37
2023-01-29T15:38:47.874Z,-0.43
2023-01-29T15:41:20.790Z,-0.49
2023-01-29T15:43:56.611Z,-0.50
2023-01-29T15:46:28.272Z,-0.49
2023-01-29T15:49:00.681Z,-0.48
2023-01-29T15:51:32.038Z,-0.49
2023-01-29T15:54:03.852Z,-0.53
2023-01-29T15:56:37.045Z,-0.58
2023-01-29T15:59:10.095Z,-0.60
2023-01-29T16:01:39.607Z,-0.65
2023-01-29T16:04:14.266Z,-0.70
2023-01-29T16:06:45.437Z,-0.75
2023-01-29T16:09:18.654Z,-0.82
2023-01-29T16:11:50.351Z,-0.88
2023-01-29T16:14:25.136Z,-0.93
2023-01-29T16:16:55.345Z,-0.94
2023-01-29T16:19:25.999Z,-0.90
2023-01-29T16:22:01.960Z,-0.86
2023-01-29T16:24:34.732Z,-0.85
2023-01-29T16:27:11.803Z,-0.83
2023-01-29T16:29:41.621Z,-0.84
2023-01-29T16:32:13.401Z,-0.85
2023-01-29T16:34:44.661Z,-0.90
2023-01-29T16:37:23.765Z,-0.91
2023-01-29T16:39:53.153Z,-0.92
2023-01-29T16:42:27.809Z,-0.95
2023-01-29T16:45:00.273Z,-0.95
2023-01-29T16:47:33.101Z,-0.91
2023-01-29T16:50:22.909Z,-0.87
2023-01-29T16:52:58.155Z,-0.80
2023-01-29T16:55:32.553Z,-0.75
2023-01-29T16:58:09.028Z,-0.70
2023-01-29T17:00:43.719Z,-0.70
2023-01-29T17:03:14.910Z,-0.72
2023-01-29T17:05:44.832Z,-0.73
2023-01-29T17:08:22.757Z,-0.76
2023-01-29T17:10:52.585Z,-0.78
2023-01-29T17:13:31.060Z,-0.81
2023-01-29T17:16:02.705Z,-0.80
2023-01-29T17:18:32.007Z,-0.76
2023-01-29T17:21:01.035Z,-0.72
2023-01-29T17:23:30.034Z,-0.70
2023-01-29T17:26:00.562Z,-0.71
2023-01-29T17:28:30.589Z,-0.73
2023-01-29T17:31:06.382Z,-0.75
2023-01-29T17:33:38.485Z,-0.76
2023-01-29T17:36:13.208Z,-0.76
2023-01-29T17:38:42.393Z,-0.74
2023-01-29T17:41:21.283Z,-0.74
2023-01-29T17:43:51.246Z,-0.73
2023-01-29T17:46:22.202Z,-0.74
2023-01-29T17:48:51.918Z,-0.76
2023-01-29T17:51:22.441Z,-0.78
2023-01-29T17:53:52.541Z,-0.83
2023-01-29T17:56:26.964Z,-0.85
2023-01-29T17:58:56.545Z,-0.88
2023-01-29T18:01:25.855Z,-0.87
2023-01-29T18:03:55.231Z,-0.87
2023-01-29T18:06:28.818Z,-0.84
2023-01-29T18:08:58.420Z,-0.86
2023-01-29T18:11:28.143Z,-0.88
2023-01-29T18:13:57.859Z,-0.89
2023-01-29T18:16:28.034Z,-0.90
2023-01-29T18:18:56.610Z,-0.92
2023-01-29T18:21:25.805Z,-0.93
2023-01-29T18:23:56.063Z,-0.95
2023-01-29T18:26:25.369Z,-0.95
2023-01-29T18:28:54.842Z,-0.94
2023-01-29T18:31:28.621Z,-0.93
2023-01-29T18:33:58.040Z,-0.92
2023-01-29T18:36:27.340Z,-0.95
2023-01-29T18:38:58.481Z,-0.92
2023-01-29T18:41:27.582Z,-0.90
2023-01-29T18:43:56.995Z,-0.90
2023-01-29T18:46:27.843Z,-0.91
2023-01-29T18:48:57.057Z,-0.91
2023-01-29T18:51:25.975Z,-0.92
2023-01-29T18:53:56.081Z,-0.92
2023-01-29T18:56:25.755Z,-0.92
2023-01-29T18:58:56.646Z,-0.90
2023-01-29T19:01:27.124Z,-0.90
2023-01-29T19:03:58.815Z,-0.88
2023-01-29T19:06:28.002Z,-0.92
2023-01-29T19:08:58.351Z,-0.93
2023-01-29T19:11:27.216Z,-0.96
2023-01-29T19:13:55.904Z,-1.04
2023-01-29T19:16:25.664Z,-1.08
2023-01-29T19:18:55.547Z,-1.06
2023-01-29T19:21:25.012Z,-1.05
2023-01-29T19:23:54.292Z,-1.02
2023-01-29T19:26:23.706Z,-1.03
2023-01-29T19:28:53.321Z,-1.06
2023-01-29T19:31:22.371Z,-1.06
2023-01-29T19:33:51.834Z,-1.08
2023-01-29T19:36:21.505Z,-1.11
2023-01-29T19:38:50.957Z,-1.10
2023-01-29T19:41:20.240Z,-1.06
2023-01-29T19:43:49.568Z,-1.04
2023-01-29T19:46:18.632Z,-1.06
2023-01-29T19:48:48.071Z,-1.07
2023-01-29T19:51:17.486Z,-1.10
2023-01-29T19:53:46.578Z,-1.12
2023-01-29T19:56:18.161Z,-1.14
2023-01-29T19:58:47.642Z,-1.19
2023-01-29T20:01:19.203Z,-1.23
2023-01-29T20:03:49.499Z,-1.21
2023-01-29T20:06:23.813Z,-1.19
2023-01-29T20:08:54.063Z,-1.17
2023-01-29T20:11:24.774Z,-1.21
2023-01-29T20:13:54.290Z,-1.23
2023-01-29T20:16:24.794Z,-1.26
2023-01-29T20:18:54.061Z,-1.28
2023-01-29T20:21:23.250Z,-1.24
2023-01-29T20:23:53.395Z,-1.25
2023-01-29T20:26:22.623Z,-1.23
2023-01-29T20:28:51.710Z,-1.23
2023-01-29T20:31:20.934Z,-1.27
2023-01-29T20:33:50.068Z,-1.35
2023-01-29T20:36:19.518Z,-1.38
2023-01-29T20:38:48.566Z,-1.37
2023-01-29T20:41:19.417Z,-1.38
2023-01-29T20:43:50.385Z,-1.36
2023-01-29T20:46:20.342Z,-1.35
2023-01-29T20:48:52.583Z,-1.37
2023-01-29T20:51:21.844Z,-1.42
2023-01-29T20:53:51.331Z,-1.48
2023-01-29T20:56:32.079Z,-1.51
2023-01-29T20:59:09.068Z,-1.47
2023-01-29T21:01:38.647Z,-1.41
2023-01-29T21:04:07.788Z,-1.41
2023-01-29T21:06:37.084Z,-1.39
2023-01-29T21:09:06.576Z,-1.42
2023-01-29T21:11:35.741Z,-1.44
2023-01-29T21:14:05.585Z,-1.43
2023-01-29T21:16:34.384Z,-1.43
2023-01-29T21:19:04.472Z,-1.43
2023-01-29T21:21:34.277Z,-1.40
2023-01-29T21:24:03.741Z,-1.36
2023-01-29T21:26:33.126Z,-1.33
2023-01-29T21:29:02.602Z,-1.33
2023-01-29T21:31:31.700Z,-1.35
2023-01-29T21:34:01.162Z,-1.36
2023-01-29T21:36:30.708Z,-1.41
2023-01-29T21:39:00.216Z,-1.42
2023-01-29T21:41:43.955Z,-1.38
2023-01-29T21:44:13.563Z,-1.38
2023-01-29T21:46:43.064Z,-1.38
2023-01-29T21:49:12.472Z,-1.39
2023-01-29T21:51:41.822Z,-1.41
2023-01-29T21:54:11.325Z,-1.51
2023-01-29T21:56:40.524Z,-1.51
2023-01-29T21:59:14.077Z,-1.46
2023-01-29T22:01:43.470Z,-1.44
2023-01-29T22:04:15.569Z,-1.48
2023-01-29T22:06:44.895Z,-1.49
2023-01-29T22:09:14.045Z,-1.52
2023-01-29T22:11:43.505Z,-1.50
2023-01-29T22:14:12.540Z,-1.47
2023-01-29T22:16:41.560Z,-1.45
2023-01-29T22:19:10.531Z,-1.45
2023-01-29T22:21:39.940Z,-1.44
2023-01-29T22:24:09.388Z,-1.42
2023-01-29T22:26:39.216Z,-1.42
2023-01-29T22:29:11.165Z,-1.45
2023-01-29T22:31:40.433Z,-1.49
2023-01-29T22:34:11.567Z,-1.48
2023-01-29T22:36:40.915Z,-1.49
2023-01-29T22:39:10.287Z,-1.51
2023-01-29T22:41:39.509Z,-1.52
2023-01-29T22:44:09.619Z,-1.57
2023-01-29T22:46:38.871Z,-1.61
2023-01-29T22:49:07.996Z,-1.66
2023-01-29T22:51:37.293Z,-1.70
2023-01-29T22:54:06.596Z,-1.69
2023-01-29T22:56:35.735Z,-1.66
2023-01-29T22:59:05.091Z,-1.63
2023-01-29T23:01:34.548Z,-1.61
2023-01-29T23:04:03.901Z,-1.62
2023-01-29T23:06:33.205Z,-1.66
2023-01-29T23:09:02.918Z,-1.67
2023-01-29T23:11:32.138Z,-1.69
2023-01-29T23:14:01.101Z,-1.68
2023-01-29T23:16:30.111Z,-1.64
2023-01-29T23:18:59.728Z,-1.60
2023-01-29T23:21:29.116Z,-1.61
2023-01-29T23:23:59.259Z,-1.70
2023-01-29T23:26:47.076Z,-1.78
2023-01-29T23:29:16.822Z,-1.83
2023-01-29T23:31:46.238Z,-1.92
2023-01-29T23:34:16.331Z,-1.90
2023-01-29T23:36:45.733Z,-1.95
2023-01-29T23:39:15.925Z,-2.01
2023-01-29T23:41:45.064Z,-2.05
2023-01-29T23:44:14.503Z,-2.10
2023-01-29T23:46:44.972Z,-2.16
2023-01-29T23:49:12.925Z,-2.23
2023-01-29T23:51:42.761Z,-2.27
2023-01-29T23:54:12.759Z,-2.28
2023-01-29T23:56:41.860Z,-2.33
2023-01-29T23:59:11.453Z,-2.35
